Terminal Aerodrome Forecast
Issued by NWS

Home | Current Version | Previous Version | Text Only | Print | Product List | Glossary On
Versions: 1 2 3 4 5 6 7 8 9 10 11 12 13 14 15 16 17 18 19 20 21 22 23 24 25 26 27 28 29
000
FTUS41 KBUF 201457 AAA
TAFJHW
TAF AMD
KJHW 201457Z 2015/2112 20009KT P6SM SCT120
     FM201600 22012G20KT P6SM BKN120
     FM201900 25014G22KT 4SM TSRA OVC025CB
     FM202100 27012G20KT P6SM BKN025
     FM202300 25007KT P6SM BKN040
     FM210300 25006KT P6SM BKN120
     FM210800 30004KT P6SM SCT060
      AMD LTD TO CLD VIS AND WIND=

USA.gov is the U.S. government's official web portal to all federal, state and local government web resources and services.